createdAt,value
2023-08-04T00:00:31.977Z,16.49
2023-08-04T00:05:33.646Z,16.53
2023-08-04T00:10:35.647Z,16.54
2023-08-04T00:15:37.313Z,16.56
2023-08-04T00:20:39.118Z,16.59
2023-08-04T00:25:40.695Z,16.63
2023-08-04T00:30:42.347Z,16.64
2023-08-04T00:35:43.915Z,16.71
2023-08-04T00:40:45.545Z,16.72
2023-08-04T00:45:47.223Z,16.72
2023-08-04T00:50:49.141Z,16.70
2023-08-04T00:55:51.529Z,16.70
2023-08-04T01:00:53.899Z,16.72
2023-08-04T01:06:43.857Z,16.75
2023-08-04T01:12:14.100Z,16.79
2023-08-04T01:17:42.246Z,16.81
2023-08-04T01:22:44.403Z,16.80
2023-08-04T01:27:49.338Z,16.77
2023-08-04T01:32:51.197Z,16.83
2023-08-04T01:37:52.827Z,16.87
2023-08-04T01:42:54.532Z,16.91
2023-08-04T01:47:56.371Z,16.92
2023-08-04T01:52:58.132Z,16.91
2023-08-04T01:57:59.780Z,16.92
2023-08-04T02:03:01.516Z,16.87
2023-08-04T02:08:03.676Z,16.84
2023-08-04T02:13:05.224Z,16.76
2023-08-04T02:18:06.897Z,16.74
2023-08-04T02:23:08.562Z,16.65
2023-08-04T02:28:10.363Z,16.66
2023-08-04T02:33:12.019Z,16.58
2023-08-04T02:38:13.699Z,16.48
2023-08-04T02:43:15.256Z,16.43
2023-08-04T02:48:16.925Z,16.47
2023-08-04T02:53:18.605Z,16.47
2023-08-04T02:58:20.275Z,16.46
2023-08-04T03:03:23.619Z,16.46
2023-08-04T03:08:25.489Z,16.48
2023-08-04T03:13:27.854Z,16.50
2023-08-04T03:18:29.476Z,16.52
2023-08-04T03:23:31.771Z,16.54
2023-08-04T03:28:33.560Z,16.56
2023-08-04T03:33:36.411Z,16.50
2023-08-04T03:38:38.214Z,16.41
2023-08-04T03:43:39.823Z,16.36
2023-08-04T03:48:41.448Z,16.33
2023-08-04T03:53:43.051Z,16.26
2023-08-04T03:58:44.680Z,16.17
2023-08-04T04:03:46.463Z,16.17
2023-08-04T04:08:48.050Z,16.17
2023-08-04T04:13:49.582Z,16.16
2023-08-04T04:18:51.399Z,16.15
2023-08-04T04:23:53.017Z,16.14
2023-08-04T04:28:54.565Z,16.10
2023-08-04T04:33:56.134Z,16.12
2023-08-04T04:38:57.794Z,16.09
2023-08-04T04:43:59.465Z,16.07
2023-08-04T04:49:01.097Z,15.98
2023-08-04T04:54:02.603Z,15.99
2023-08-04T04:59:04.482Z,15.99
2023-08-04T05:04:06.178Z,15.97
2023-08-04T05:09:08.863Z,15.98
2023-08-04T05:14:10.458Z,15.95
2023-08-04T05:19:12.142Z,16.01
2023-08-04T05:24:13.764Z,16.03
2023-08-04T05:29:15.442Z,16.03
2023-08-04T05:34:17.042Z,16.06
2023-08-04T05:39:18.939Z,15.97
2023-08-04T05:44:20.650Z,16.00
2023-08-04T05:49:22.361Z,16.02
2023-08-04T05:54:23.932Z,16.02
2023-08-04T05:59:25.566Z,16.11
2023-08-04T06:04:27.144Z,16.22
2023-08-04T06:09:28.702Z,16.29
2023-08-04T06:14:30.269Z,16.29
2023-08-04T06:19:31.863Z,16.35
2023-08-04T06:24:33.451Z,16.43
2023-08-04T06:29:36.312Z,16.49
2023-08-04T06:34:37.921Z,16.56
2023-08-04T06:39:39.546Z,16.62
2023-08-04T06:44:41.205Z,16.73
2023-08-04T06:49:43.884Z,16.84
2023-08-04T06:54:45.941Z,17.02
2023-08-04T06:59:47.507Z,17.25
2023-08-04T07:04:49.120Z,17.59
2023-08-04T07:09:50.715Z,17.66
2023-08-04T07:14:52.377Z,17.78
2023-08-04T07:19:54.279Z,18.21
2023-08-04T07:24:55.897Z,18.64
2023-08-04T07:29:57.466Z,18.77
2023-08-04T07:34:59.227Z,18.89
2023-08-04T07:40:00.829Z,19.10
2023-08-04T07:45:02.408Z,19.16
2023-08-04T07:50:04.154Z,19.00
2023-08-04T07:55:06.898Z,19.04
2023-08-04T08:00:08.963Z,18.84
2023-08-04T08:05:10.482Z,18.47
2023-08-04T08:10:12.038Z,18.62
2023-08-04T08:15:13.583Z,18.46
2023-08-04T08:20:15.362Z,18.63
2023-08-04T08:25:16.914Z,18.74
2023-08-04T08:30:18.539Z,18.64
2023-08-04T08:35:20.071Z,18.67
2023-08-04T08:40:27.075Z,18.62
2023-08-04T08:45:29.169Z,18.59
2023-08-04T08:50:30.875Z,18.40
2023-08-04T08:55:33.392Z,18.34
2023-08-04T09:00:36.202Z,18.41
2023-08-04T09:05:37.778Z,18.48
2023-08-04T09:10:39.756Z,18.55
2023-08-04T09:15:49.894Z,18.48
2023-08-04T09:20:58.847Z,18.61
2023-08-04T09:26:00.457Z,18.81
2023-08-04T09:31:07.164Z,19.01
2023-08-04T09:36:11.141Z,19.26
2023-08-04T09:41:15.924Z,19.30
2023-08-04T09:46:18.803Z,19.46
2023-08-04T09:51:20.717Z,19.61
2023-08-04T09:56:28.381Z,19.96
2023-08-04T10:01:30.931Z,20.22
2023-08-04T10:06:34.495Z,20.31
2023-08-04T10:11:36.146Z,20.39
2023-08-04T10:16:39.530Z,20.53
2023-08-04T10:21:42.780Z,20.30
2023-08-04T10:26:48.239Z,20.21
2023-08-04T10:31:56.318Z,20.16
2023-08-04T10:37:16.529Z,20.10
2023-08-04T10:42:25.644Z,20.00
2023-08-04T10:48:10.354Z,19.96
2023-08-04T10:53:13.411Z,19.76
2023-08-04T10:58:16.263Z,19.64
2023-08-04T11:03:27.137Z,19.56
2023-08-04T11:08:28.750Z,19.53
2023-08-04T11:13:30.621Z,19.47
2023-08-04T11:18:32.592Z,19.45
2023-08-04T11:23:34.256Z,19.35
2023-08-04T11:28:36.388Z,19.34
2023-08-04T11:33:45.585Z,19.38
2023-08-04T11:38:47.196Z,19.55
2023-08-04T11:43:48.933Z,19.57
2023-08-04T11:48:50.607Z,19.56
2023-08-04T11:53:52.228Z,19.62
2023-08-04T11:58:58.913Z,19.60
2023-08-04T12:04:02.275Z,19.53
2023-08-04T12:09:04.397Z,19.56
2023-08-04T12:14:11.279Z,19.63
2023-08-04T12:19:12.926Z,19.67
2023-08-04T12:24:14.589Z,19.73
2023-08-04T12:29:16.216Z,19.60
2023-08-04T12:34:20.042Z,19.46
2023-08-04T12:39:23.964Z,19.30
2023-08-04T12:44:25.574Z,19.29
2023-08-04T12:49:27.227Z,19.29
2023-08-04T12:54:29.327Z,19.17
2023-08-04T12:59:32.480Z,19.06
2023-08-04T13:04:35.021Z,19.11
2023-08-04T13:09:36.756Z,18.96
2023-08-04T13:14:38.370Z,18.91
2023-08-04T13:19:40.001Z,18.99
2023-08-04T13:24:41.597Z,19.05
2023-08-04T13:29:43.156Z,18.77
2023-08-04T13:34:44.776Z,18.84
2023-08-04T13:39:46.382Z,18.83
2023-08-04T13:44:48.672Z,18.84
2023-08-04T13:49:50.273Z,18.77
2023-08-04T13:54:51.898Z,18.86
2023-08-04T13:59:53.510Z,19.00
2023-08-04T14:04:55.407Z,19.12
2023-08-04T14:09:57.233Z,19.04
2023-08-04T14:14:59.035Z,18.86
2023-08-04T14:20:06.373Z,18.73
2023-08-04T14:25:08.514Z,18.65
2023-08-04T14:30:10.267Z,18.62
2023-08-04T14:35:11.976Z,18.52
2023-08-04T14:40:13.720Z,18.43
2023-08-04T14:45:15.326Z,18.37
2023-08-04T14:50:16.986Z,18.29
2023-08-04T14:55:18.594Z,18.31
2023-08-04T15:00:20.200Z,18.31
2023-08-04T15:05:21.978Z,18.28
2023-08-04T15:10:23.600Z,18.18
2023-08-04T15:15:26.963Z,17.91
2023-08-04T15:20:28.709Z,17.86
2023-08-04T15:25:30.591Z,17.88
2023-08-04T15:30:36.539Z,17.80
2023-08-04T15:35:38.233Z,17.53
2023-08-04T15:40:41.798Z,17.45
2023-08-04T15:45:43.399Z,17.73
2023-08-04T15:50:46.745Z,17.97
2023-08-04T15:55:48.424Z,18.02
2023-08-04T16:00:49.983Z,18.01
2023-08-04T16:05:58.860Z,18.00
2023-08-04T16:11:03.976Z,18.08
2023-08-04T16:16:08.062Z,17.91
2023-08-04T16:21:09.766Z,17.96
2023-08-04T16:26:11.413Z,17.97
2023-08-04T16:31:13.606Z,18.07
2023-08-04T16:36:15.473Z,18.04
2023-08-04T16:41:20.036Z,18.00
2023-08-04T16:46:21.808Z,17.98
2023-08-04T16:51:25.824Z,17.92
2023-08-04T16:56:28.977Z,17.84
2023-08-04T17:01:31.316Z,17.79
2023-08-04T17:06:33.192Z,17.76
2023-08-04T17:11:35.188Z,17.67
2023-08-04T17:16:36.790Z,17.64
2023-08-04T17:21:38.458Z,17.59
2023-08-04T17:26:40.263Z,17.58
2023-08-04T17:31:45.377Z,17.61
2023-08-04T17:36:47.546Z,17.66
2023-08-04T17:41:49.789Z,17.71
2023-08-04T17:46:51.684Z,17.77
2023-08-04T17:51:53.332Z,17.72
2023-08-04T17:56:54.997Z,17.77
2023-08-04T18:01:56.650Z,17.72
2023-08-04T18:06:58.257Z,17.69
2023-08-04T18:11:59.899Z,17.64
2023-08-04T18:17:01.970Z,17.61
2023-08-04T18:22:04.458Z,17.56
2023-08-04T18:27:08.167Z,17.60
2023-08-04T18:32:10.989Z,17.61
2023-08-04T18:37:14.420Z,17.57
2023-08-04T18:42:18.055Z,17.57
2023-08-04T18:47:21.695Z,17.52
2023-08-04T18:52:25.190Z,17.56
2023-08-04T18:57:28.715Z,17.52
2023-08-04T19:02:31.845Z,17.43
2023-08-04T19:07:35.596Z,17.34
2023-08-04T19:12:39.216Z,17.21
2023-08-04T19:17:43.063Z,17.13
2023-08-04T19:22:46.745Z,17.11
2023-08-04T19:27:50.538Z,17.10
2023-08-04T19:32:59.305Z,17.04
2023-08-04T19:38:22.391Z,16.98
2023-08-04T19:43:27.478Z,16.93
2023-08-04T19:48:31.676Z,16.85
2023-08-04T19:53:34.806Z,16.80
2023-08-04T19:58:42.376Z,16.74
2023-08-04T20:03:48.317Z,16.69
2023-08-04T20:08:51.951Z,16.63
2023-08-04T20:13:55.931Z,16.63
2023-08-04T20:18:59.473Z,16.55
2023-08-04T20:24:02.649Z,16.56
2023-08-04T20:29:06.112Z,16.54
2023-08-04T20:34:09.770Z,16.52
2023-08-04T20:39:12.781Z,16.46
2023-08-04T20:44:16.973Z,16.43
2023-08-04T20:49:19.476Z,16.43
2023-08-04T20:54:23.442Z,16.43
2023-08-04T20:59:26.614Z,16.40
2023-08-04T21:04:29.547Z,16.39
2023-08-04T21:09:31.125Z,16.37
2023-08-04T21:14:32.663Z,16.33
2023-08-04T21:19:34.366Z,16.36
2023-08-04T21:24:36.031Z,16.39
2023-08-04T21:29:37.623Z,16.40
2023-08-04T21:34:39.212Z,16.43
2023-08-04T21:39:40.784Z,16.39
2023-08-04T21:44:42.351Z,16.30
2023-08-04T21:49:43.947Z,16.27
2023-08-04T21:54:45.570Z,16.28
2023-08-04T21:59:47.124Z,16.23
2023-08-04T22:04:48.898Z,16.19
2023-08-04T22:09:50.513Z,16.16
2023-08-04T22:14:52.124Z,16.14
2023-08-04T22:19:53.881Z,16.11
2023-08-04T22:24:55.385Z,16.09
2023-08-04T22:29:57.174Z,16.10
2023-08-04T22:34:58.784Z,16.11
2023-08-04T22:40:00.363Z,16.13
2023-08-04T22:45:03.941Z,16.09
2023-08-04T22:50:05.965Z,16.06
2023-08-04T22:55:07.928Z,16.00
2023-08-04T23:00:10.766Z,15.95
2023-08-04T23:05:16.042Z,15.92
2023-08-04T23:10:17.648Z,15.93
2023-08-04T23:15:19.225Z,15.86
2023-08-04T23:20:20.852Z,15.83
2023-08-04T23:25:22.433Z,15.80
2023-08-04T23:30:24.023Z,15.80
2023-08-04T23:35:26.086Z,15.80
2023-08-04T23:40:27.684Z,15.82
2023-08-04T23:45:29.265Z,15.84
2023-08-04T23:50:30.830Z,15.84
2023-08-04T23:55:32.443Z,15.81
